sensor_id;sensor_type;location;lat;lon;timestamp;temperature;humidity
51637;DHT22;37713;53.254;6.460;2023-04-29T00:02:12;8.90;99.90
51637;DHT22;37713;53.254;6.460;2023-04-29T00:04:38;8.90;99.90
51637;DHT22;37713;53.254;6.460;2023-04-29T00:07:04;8.90;99.90
51637;DHT22;37713;53.254;6.460;2023-04-29T00:09:30;8.90;99.90
51637;DHT22;37713;53.254;6.460;2023-04-29T00:11:55;8.90;99.90
51637;DHT22;37713;53.254;6.460;2023-04-29T00:14:21;8.90;99.90
51637;DHT22;37713;53.254;6.460;2023-04-29T00:16:47;8.90;99.90
51637;DHT22;37713;53.254;6.460;2023-04-29T00:19:13;8.90;99.90
51637;DHT22;37713;53.254;6.460;2023-04-29T00:21:39;8.90;99.90
51637;DHT22;37713;53.254;6.460;2023-04-29T00:24:04;8.90;99.90
51637;DHT22;37713;53.254;6.460;2023-04-29T00:26:30;8.90;99.90
51637;DHT22;37713;53.254;6.460;2023-04-29T00:28:56;8.90;99.90
51637;DHT22;37713;53.254;6.460;2023-04-29T00:31:22;8.80;99.90
51637;DHT22;37713;53.254;6.460;2023-04-29T00:33:48;8.80;99.90
51637;DHT22;37713;53.254;6.460;2023-04-29T00:36:14;8.80;99.90
51637;DHT22;37713;53.254;6.460;2023-04-29T00:38:39;8.80;99.90
51637;DHT22;37713;53.254;6.460;2023-04-29T00:41:05;8.80;99.90
51637;DHT22;37713;53.254;6.460;2023-04-29T00:43:31;8.80;99.90
51637;DHT22;37713;53.254;6.460;2023-04-29T00:45:57;8.80;99.90
51637;DHT22;37713;53.254;6.460;2023-04-29T00:48:22;8.70;99.90
51637;DHT22;37713;53.254;6.460;2023-04-29T00:50:48;8.70;99.90
51637;DHT22;37713;53.254;6.460;2023-04-29T00:53:15;8.70;99.90
51637;DHT22;37713;53.254;6.460;2023-04-29T00:55:43;8.70;99.90
51637;DHT22;37713;53.254;6.460;2023-04-29T00:58:11;8.70;99.90
51637;DHT22;37713;53.254;6.460;2023-04-29T01:00:37;8.70;99.90
51637;DHT22;37713;53.254;6.460;2023-04-29T01:03:04;8.70;99.90
51637;DHT22;37713;53.254;6.460;2023-04-29T01:05:29;8.70;99.90
51637;DHT22;37713;53.254;6.460;2023-04-29T01:10:34;8.80;99.90
51637;DHT22;37713;53.254;6.460;2023-04-29T01:13:12;8.80;99.90
51637;DHT22;37713;53.254;6.460;2023-04-29T01:16:01;8.80;99.90
51637;DHT22;37713;53.254;6.460;2023-04-29T01:18:40;8.80;99.90
51637;DHT22;37713;53.254;6.460;2023-04-29T01:21:07;8.80;99.90
51637;DHT22;37713;53.254;6.460;2023-04-29T01:23:33;8.80;99.90
51637;DHT22;37713;53.254;6.460;2023-04-29T01:25:59;8.80;99.90
51637;DHT22;37713;53.254;6.460;2023-04-29T01:39:12;8.70;99.90
51637;DHT22;37713;53.254;6.460;2023-04-29T01:42:38;8.60;99.90
51637;DHT22;37713;53.254;6.460;2023-04-29T01:44:37;8.50;99.90
51637;DHT22;37713;53.254;6.460;2023-04-29T01:47:04;8.40;99.90
51637;DHT22;37713;53.254;6.460;2023-04-29T01:49:34;8.30;99.90
51637;DHT22;37713;53.254;6.460;2023-04-29T01:52:00;8.30;99.90
51637;DHT22;37713;53.254;6.460;2023-04-29T01:54:26;8.20;99.90
51637;DHT22;37713;53.254;6.460;2023-04-29T01:56:52;8.10;99.90
51637;DHT22;37713;53.254;6.460;2023-04-29T01:59:18;8.00;99.90
51637;DHT22;37713;53.254;6.460;2023-04-29T02:01:45;8.00;99.90
51637;DHT22;37713;53.254;6.460;2023-04-29T02:04:11;7.90;99.90
51637;DHT22;37713;53.254;6.460;2023-04-29T02:06:36;7.90;99.90
51637;DHT22;37713;53.254;6.460;2023-04-29T02:09:02;7.90;99.90
51637;DHT22;37713;53.254;6.460;2023-04-29T02:11:28;7.90;99.90
51637;DHT22;37713;53.254;6.460;2023-04-29T02:13:54;7.80;99.90
51637;DHT22;37713;53.254;6.460;2023-04-29T02:16:21;7.80;99.90
51637;DHT22;37713;53.254;6.460;2023-04-29T02:18:47;7.80;99.90
51637;DHT22;37713;53.254;6.460;2023-04-29T02:21:13;7.80;99.90
51637;DHT22;37713;53.254;6.460;2023-04-29T02:23:39;7.80;99.90
51637;DHT22;37713;53.254;6.460;2023-04-29T02:26:05;7.80;99.90
51637;DHT22;37713;53.254;6.460;2023-04-29T02:28:32;7.80;99.90
51637;DHT22;37713;53.254;6.460;2023-04-29T02:30:59;7.80;99.90
51637;DHT22;37713;53.254;6.460;2023-04-29T02:33:25;7.80;99.90
51637;DHT22;37713;53.254;6.460;2023-04-29T02:35:50;7.90;99.90
51637;DHT22;37713;53.254;6.460;2023-04-29T02:38:16;7.90;99.90
51637;DHT22;37713;53.254;6.460;2023-04-29T02:40:45;7.90;99.90
51637;DHT22;37713;53.254;6.460;2023-04-29T02:43:12;8.00;99.90
51637;DHT22;37713;53.254;6.460;2023-04-29T02:45:38;8.00;99.90
51637;DHT22;37713;53.254;6.460;2023-04-29T02:48:06;8.10;99.90
51637;DHT22;37713;53.254;6.460;2023-04-29T02:50:32;8.20;99.90
51637;DHT22;37713;53.254;6.460;2023-04-29T02:52:58;8.20;99.90
51637;DHT22;37713;53.254;6.460;2023-04-29T02:55:24;8.20;99.90
51637;DHT22;37713;53.254;6.460;2023-04-29T02:57:51;8.30;99.90
51637;DHT22;37713;53.254;6.460;2023-04-29T03:00:17;8.30;99.90
51637;DHT22;37713;53.254;6.460;2023-04-29T03:02:43;8.30;99.90
51637;DHT22;37713;53.254;6.460;2023-04-29T03:05:09;8.30;99.90
51637;DHT22;37713;53.254;6.460;2023-04-29T03:07:34;8.40;99.90
51637;DHT22;37713;53.254;6.460;2023-04-29T03:10:00;8.40;99.90
51637;DHT22;37713;53.254;6.460;2023-04-29T03:12:26;8.40;99.90
51637;DHT22;37713;53.254;6.460;2023-04-29T03:14:51;8.40;99.90
51637;DHT22;37713;53.254;6.460;2023-04-29T03:17:17;8.40;99.90
51637;DHT22;37713;53.254;6.460;2023-04-29T03:19:43;8.40;99.90
51637;DHT22;37713;53.254;6.460;2023-04-29T03:22:09;8.50;99.90
51637;DHT22;37713;53.254;6.460;2023-04-29T03:24:38;8.50;99.90
51637;DHT22;37713;53.254;6.460;2023-04-29T03:27:04;8.50;99.90
51637;DHT22;37713;53.254;6.460;2023-04-29T03:29:30;8.50;99.90
51637;DHT22;37713;53.254;6.460;2023-04-29T03:31:56;8.50;99.90
51637;DHT22;37713;53.254;6.460;2023-04-29T03:34:23;8.50;99.90
51637;DHT22;37713;53.254;6.460;2023-04-29T03:36:49;8.50;99.90
51637;DHT22;37713;53.254;6.460;2023-04-29T03:39:18;8.50;99.90
51637;DHT22;37713;53.254;6.460;2023-04-29T03:41:46;8.50;99.90
51637;DHT22;37713;53.254;6.460;2023-04-29T03:44:11;8.50;99.90
51637;DHT22;37713;53.254;6.460;2023-04-29T03:46:37;8.50;99.90
51637;DHT22;37713;53.254;6.460;2023-04-29T03:49:03;8.50;99.90
51637;DHT22;37713;53.254;6.460;2023-04-29T03:51:29;8.50;99.90
51637;DHT22;37713;53.254;6.460;2023-04-29T03:53:55;8.50;99.90
51637;DHT22;37713;53.254;6.460;2023-04-29T03:56:22;8.50;99.90
51637;DHT22;37713;53.254;6.460;2023-04-29T03:58:51;8.50;99.90
51637;DHT22;37713;53.254;6.460;2023-04-29T04:01:17;8.40;99.90
51637;DHT22;37713;53.254;6.460;2023-04-29T04:03:42;8.50;99.90
51637;DHT22;37713;53.254;6.460;2023-04-29T04:06:08;8.40;99.90
51637;DHT22;37713;53.254;6.460;2023-04-29T04:08:34;8.40;99.90
51637;DHT22;37713;53.254;6.460;2023-04-29T04:11:00;8.40;99.90
51637;DHT22;37713;53.254;6.460;2023-04-29T04:13:31;8.40;99.90
51637;DHT22;37713;53.254;6.460;2023-04-29T04:15:57;8.40;99.90
51637;DHT22;37713;53.254;6.460;2023-04-29T04:18:22;8.40;99.90
51637;DHT22;37713;53.254;6.460;2023-04-29T04:20:48;8.50;99.90
51637;DHT22;37713;53.254;6.460;2023-04-29T04:23:14;8.40;99.90
51637;DHT22;37713;53.254;6.460;2023-04-29T04:25:48;8.40;99.90
51637;DHT22;37713;53.254;6.460;2023-04-29T04:28:14;8.40;99.90
51637;DHT22;37713;53.254;6.460;2023-04-29T04:30:40;8.40;99.90
51637;DHT22;37713;53.254;6.460;2023-04-29T04:33:07;8.40;99.90
51637;DHT22;37713;53.254;6.460;2023-04-29T04:35:35;8.40;99.90
51637;DHT22;37713;53.254;6.460;2023-04-29T04:38:01;8.40;99.90
51637;DHT22;37713;53.254;6.460;2023-04-29T04:40:26;8.40;99.90
51637;DHT22;37713;53.254;6.460;2023-04-29T04:42:52;8.40;99.90
51637;DHT22;37713;53.254;6.460;2023-04-29T04:45:18;8.40;99.90
51637;DHT22;37713;53.254;6.460;2023-04-29T04:47:44;8.40;99.90
51637;DHT22;37713;53.254;6.460;2023-04-29T04:50:09;8.40;99.90
51637;DHT22;37713;53.254;6.460;2023-04-29T04:52:35;8.40;99.90
51637;DHT22;37713;53.254;6.460;2023-04-29T04:55:01;8.40;99.90
51637;DHT22;37713;53.254;6.460;2023-04-29T04:57:27;8.40;99.90
51637;DHT22;37713;53.254;6.460;2023-04-29T04:59:53;8.40;99.90
51637;DHT22;37713;53.254;6.460;2023-04-29T05:02:18;8.40;99.90
51637;DHT22;37713;53.254;6.460;2023-04-29T05:04:44;8.40;99.90
51637;DHT22;37713;53.254;6.460;2023-04-29T05:07:10;8.40;99.90
51637;DHT22;37713;53.254;6.460;2023-04-29T05:09:36;8.50;99.90
51637;DHT22;37713;53.254;6.460;2023-04-29T05:12:02;8.50;99.90
51637;DHT22;37713;53.254;6.460;2023-04-29T05:14:28;8.50;99.90
51637;DHT22;37713;53.254;6.460;2023-04-29T05:16:58;8.50;99.90
51637;DHT22;37713;53.254;6.460;2023-04-29T05:19:24;8.60;99.90
51637;DHT22;37713;53.254;6.460;2023-04-29T05:21:50;8.60;99.90
51637;DHT22;37713;53.254;6.460;2023-04-29T05:24:16;8.60;99.90
51637;DHT22;37713;53.254;6.460;2023-04-29T05:26:42;8.70;99.90
51637;DHT22;37713;53.254;6.460;2023-04-29T05:29:09;8.70;99.90
51637;DHT22;37713;53.254;6.460;2023-04-29T05:31:36;8.80;99.90
51637;DHT22;37713;53.254;6.460;2023-04-29T05:34:02;8.80;99.90
51637;DHT22;37713;53.254;6.460;2023-04-29T05:36:27;8.90;99.90
51637;DHT22;37713;53.254;6.460;2023-04-29T05:38:54;8.90;99.90
51637;DHT22;37713;53.254;6.460;2023-04-29T05:41:20;9.00;99.90
51637;DHT22;37713;53.254;6.460;2023-04-29T05:43:48;9.10;99.90
51637;DHT22;37713;53.254;6.460;2023-04-29T05:46:14;9.10;99.90
51637;DHT22;37713;53.254;6.460;2023-04-29T05:48:41;9.20;99.90
51637;DHT22;37713;53.254;6.460;2023-04-29T05:51:07;9.20;99.90
51637;DHT22;37713;53.254;6.460;2023-04-29T05:53:32;9.10;99.90
51637;DHT22;37713;53.254;6.460;2023-04-29T05:55:58;9.10;99.90
51637;DHT22;37713;53.254;6.460;2023-04-29T05:58:24;9.10;99.90
51637;DHT22;37713;53.254;6.460;2023-04-29T06:00:51;9.10;99.90
51637;DHT22;37713;53.254;6.460;2023-04-29T06:03:16;9.00;99.90
51637;DHT22;37713;53.254;6.460;2023-04-29T06:05:42;9.10;99.90
51637;DHT22;37713;53.254;6.460;2023-04-29T06:08:08;9.10;99.90
51637;DHT22;37713;53.254;6.460;2023-04-29T06:10:35;9.50;99.90
51637;DHT22;37713;53.254;6.460;2023-04-29T06:13:01;10.20;99.90
51637;DHT22;37713;53.254;6.460;2023-04-29T06:15:27;10.70;99.90
51637;DHT22;37713;53.254;6.460;2023-04-29T06:17:53;11.10;99.90
51637;DHT22;37713;53.254;6.460;2023-04-29T06:20:19;11.20;99.90
51637;DHT22;37713;53.254;6.460;2023-04-29T06:22:45;11.40;99.90
51637;DHT22;37713;53.254;6.460;2023-04-29T06:25:12;11.60;99.90
51637;DHT22;37713;53.254;6.460;2023-04-29T06:27:38;12.50;99.90
51637;DHT22;37713;53.254;6.460;2023-04-29T06:30:05;13.40;99.90
51637;DHT22;37713;53.254;6.460;2023-04-29T06:32:31;14.20;99.90
51637;DHT22;37713;53.254;6.460;2023-04-29T06:34:57;14.90;99.90
51637;DHT22;37713;53.254;6.460;2023-04-29T06:37:23;15.70;99.90
51637;DHT22;37713;53.254;6.460;2023-04-29T06:39:48;16.00;99.90
51637;DHT22;37713;53.254;6.460;2023-04-29T06:42:14;16.50;99.90
51637;DHT22;37713;53.254;6.460;2023-04-29T06:44:40;16.50;99.90
51637;DHT22;37713;53.254;6.460;2023-04-29T06:47:05;16.30;99.90
51637;DHT22;37713;53.254;6.460;2023-04-29T06:49:31;16.50;99.90
51637;DHT22;37713;53.254;6.460;2023-04-29T06:51:57;16.50;99.90
51637;DHT22;37713;53.254;6.460;2023-04-29T06:54:24;17.10;99.90
51637;DHT22;37713;53.254;6.460;2023-04-29T06:56:52;17.40;99.90
51637;DHT22;37713;53.254;6.460;2023-04-29T06:59:17;18.10;99.90
51637;DHT22;37713;53.254;6.460;2023-04-29T07:01:45;18.40;99.90
51637;DHT22;37713;53.254;6.460;2023-04-29T07:04:11;18.30;99.90
51637;DHT22;37713;53.254;6.460;2023-04-29T07:06:37;18.90;99.90
51637;DHT22;37713;53.254;6.460;2023-04-29T07:09:03;19.00;99.90
51637;DHT22;37713;53.254;6.460;2023-04-29T07:11:29;19.20;99.90
51637;DHT22;37713;53.254;6.460;2023-04-29T07:13:55;19.20;99.90
51637;DHT22;37713;53.254;6.460;2023-04-29T07:16:24;19.00;99.90
51637;DHT22;37713;53.254;6.460;2023-04-29T07:18:52;18.20;99.90
51637;DHT22;37713;53.254;6.460;2023-04-29T07:21:18;18.60;99.90
51637;DHT22;37713;53.254;6.460;2023-04-29T07:23:44;18.60;99.90
51637;DHT22;37713;53.254;6.460;2023-04-29T07:28:36;18.50;99.90
51637;DHT22;37713;53.254;6.460;2023-04-29T07:31:02;17.90;99.90
51637;DHT22;37713;53.254;6.460;2023-04-29T07:33:28;17.50;99.90
51637;DHT22;37713;53.254;6.460;2023-04-29T07:35:54;17.40;99.90
51637;DHT22;37713;53.254;6.460;2023-04-29T07:38:20;17.30;99.90
51637;DHT22;37713;53.254;6.460;2023-04-29T07:40:46;17.20;99.90
51637;DHT22;37713;53.254;6.460;2023-04-29T07:43:12;17.60;99.90
51637;DHT22;37713;53.254;6.460;2023-04-29T07:45:38;17.80;99.90
51637;DHT22;37713;53.254;6.460;2023-04-29T07:48:05;17.70;99.90
51637;DHT22;37713;53.254;6.460;2023-04-29T07:50:33;17.70;99.90
51637;DHT22;37713;53.254;6.460;2023-04-29T07:52:59;17.30;99.90
51637;DHT22;37713;53.254;6.460;2023-04-29T07:55:26;17.00;99.90
51637;DHT22;37713;53.254;6.460;2023-04-29T07:57:55;16.40;99.90
51637;DHT22;37713;53.254;6.460;2023-04-29T08:00:23;16.30;99.90
51637;DHT22;37713;53.254;6.460;2023-04-29T08:02:53;16.20;99.90
51637;DHT22;37713;53.254;6.460;2023-04-29T08:05:23;16.10;99.90
51637;DHT22;37713;53.254;6.460;2023-04-29T08:07:50;15.70;99.90
51637;DHT22;37713;53.254;6.460;2023-04-29T08:10:16;15.90;99.90
51637;DHT22;37713;53.254;6.460;2023-04-29T08:12:45;15.50;99.90
51637;DHT22;37713;53.254;6.460;2023-04-29T08:15:11;15.40;99.90
51637;DHT22;37713;53.254;6.460;2023-04-29T08:17:37;15.10;99.90
51637;DHT22;37713;53.254;6.460;2023-04-29T08:20:03;15.10;99.90
51637;DHT22;37713;53.254;6.460;2023-04-29T08:22:29;15.20;99.90
51637;DHT22;37713;53.254;6.460;2023-04-29T08:24:55;15.20;99.90
51637;DHT22;37713;53.254;6.460;2023-04-29T08:27:22;15.50;99.90
51637;DHT22;37713;53.254;6.460;2023-04-29T08:29:48;15.60;99.90
51637;DHT22;37713;53.254;6.460;2023-04-29T08:32:14;15.90;99.90
51637;DHT22;37713;53.254;6.460;2023-04-29T08:34:39;15.90;99.90
51637;DHT22;37713;53.254;6.460;2023-04-29T08:37:06;15.70;99.90
51637;DHT22;37713;53.254;6.460;2023-04-29T08:39:32;16.00;99.90
51637;DHT22;37713;53.254;6.460;2023-04-29T08:41:58;16.20;99.90
51637;DHT22;37713;53.254;6.460;2023-04-29T08:44:25;16.40;99.90
51637;DHT22;37713;53.254;6.460;2023-04-29T08:46:54;16.20;99.90
51637;DHT22;37713;53.254;6.460;2023-04-29T08:49:21;16.20;99.90
51637;DHT22;37713;53.254;6.460;2023-04-29T08:51:50;16.30;99.90
51637;DHT22;37713;53.254;6.460;2023-04-29T08:54:16;16.30;99.90
51637;DHT22;37713;53.254;6.460;2023-04-29T08:56:45;16.40;99.90
51637;DHT22;37713;53.254;6.460;2023-04-29T08:59:13;16.40;99.90
51637;DHT22;37713;53.254;6.460;2023-04-29T09:01:42;16.30;99.90
51637;DHT22;37713;53.254;6.460;2023-04-29T09:04:14;15.80;99.90
51637;DHT22;37713;53.254;6.460;2023-04-29T09:06:46;15.70;99.90
51637;DHT22;37713;53.254;6.460;2023-04-29T09:09:13;15.40;99.90
51637;DHT22;37713;53.254;6.460;2023-04-29T09:11:40;15.30;99.90
51637;DHT22;37713;53.254;6.460;2023-04-29T09:14:05;15.10;99.90
51637;DHT22;37713;53.254;6.460;2023-04-29T09:16:33;14.90;99.90
51637;DHT22;37713;53.254;6.460;2023-04-29T09:19:01;15.10;99.90
51637;DHT22;37713;53.254;6.460;2023-04-29T09:21:28;15.00;99.90
51637;DHT22;37713;53.254;6.460;2023-04-29T09:23:59;15.20;99.90
51637;DHT22;37713;53.254;6.460;2023-04-29T09:26:25;15.10;99.90
51637;DHT22;37713;53.254;6.460;2023-04-29T09:29:11;15.20;99.90
51637;DHT22;37713;53.254;6.460;2023-04-29T09:31:43;15.00;99.90
51637;DHT22;37713;53.254;6.460;2023-04-29T09:34:09;14.70;99.90
51637;DHT22;37713;53.254;6.460;2023-04-29T09:37:22;14.50;99.90
51637;DHT22;37713;53.254;6.460;2023-04-29T09:39:48;14.10;99.90
51637;DHT22;37713;53.254;6.460;2023-04-29T09:42:13;14.00;99.90
51637;DHT22;37713;53.254;6.460;2023-04-29T09:44:41;13.90;99.90
51637;DHT22;37713;53.254;6.460;2023-04-29T09:47:08;13.70;99.90
51637;DHT22;37713;53.254;6.460;2023-04-29T09:49:44;13.60;99.90
51637;DHT22;37713;53.254;6.460;2023-04-29T09:52:12;13.50;99.90
51637;DHT22;37713;53.254;6.460;2023-04-29T09:54:40;13.70;99.90
51637;DHT22;37713;53.254;6.460;2023-04-29T09:57:07;13.70;99.90
51637;DHT22;37713;53.254;6.460;2023-04-29T09:59:35;13.70;99.90
51637;DHT22;37713;53.254;6.460;2023-04-29T10:02:15;13.70;99.90
51637;DHT22;37713;53.254;6.460;2023-04-29T10:04:52;13.80;99.90
51637;DHT22;37713;53.254;6.460;2023-04-29T10:07:18;13.90;99.90
51637;DHT22;37713;53.254;6.460;2023-04-29T10:09:45;14.00;99.90
51637;DHT22;37713;53.254;6.460;2023-04-29T10:12:15;14.10;99.90
51637;DHT22;37713;53.254;6.460;2023-04-29T10:14:54;14.10;99.90
51637;DHT22;37713;53.254;6.460;2023-04-29T10:20:01;13.90;99.90
51637;DHT22;37713;53.254;6.460;2023-04-29T10:22:46;13.90;99.90
51637;DHT22;37713;53.254;6.460;2023-04-29T10:25:20;13.90;99.90
51637;DHT22;37713;53.254;6.460;2023-04-29T10:27:47;13.70;99.90
51637;DHT22;37713;53.254;6.460;2023-04-29T10:30:15;13.80;99.90
51637;DHT22;37713;53.254;6.460;2023-04-29T10:32:42;13.90;99.90
51637;DHT22;37713;53.254;6.460;2023-04-29T10:35:09;13.90;99.90
51637;DHT22;37713;53.254;6.460;2023-04-29T10:37:37;14.00;99.90
51637;DHT22;37713;53.254;6.460;2023-04-29T10:42:48;13.90;99.90
51637;DHT22;37713;53.254;6.460;2023-04-29T10:45:31;13.80;99.90
51637;DHT22;37713;53.254;6.460;2023-04-29T10:53:16;13.80;99.90
51637;DHT22;37713;53.254;6.460;2023-04-29T10:55:49;13.80;99.90
51637;DHT22;37713;53.254;6.460;2023-04-29T10:58:36;13.70;99.90
51637;DHT22;37713;53.254;6.460;2023-04-29T11:01:03;13.70;99.90
51637;DHT22;37713;53.254;6.460;2023-04-29T11:03:48;13.60;99.90
51637;DHT22;37713;53.254;6.460;2023-04-29T11:06:14;13.60;99.90
51637;DHT22;37713;53.254;6.460;2023-04-29T11:08:40;13.70;99.90
51637;DHT22;37713;53.254;6.460;2023-04-29T11:11:08;13.60;99.90
51637;DHT22;37713;53.254;6.460;2023-04-29T11:13:38;13.50;99.90
51637;DHT22;37713;53.254;6.460;2023-04-29T11:18:30;13.50;99.90
51637;DHT22;37713;53.254;6.460;2023-04-29T11:23:40;13.60;99.90
51637;DHT22;37713;53.254;6.460;2023-04-29T11:26:07;13.70;99.90
51637;DHT22;37713;53.254;6.460;2023-04-29T11:28:33;13.70;99.90
51637;DHT22;37713;53.254;6.460;2023-04-29T11:30:59;13.70;99.90
51637;DHT22;37713;53.254;6.460;2023-04-29T11:33:26;13.80;99.90
51637;DHT22;37713;53.254;6.460;2023-04-29T11:35:53;13.60;99.90
51637;DHT22;37713;53.254;6.460;2023-04-29T11:38:29;13.70;99.90
51637;DHT22;37713;53.254;6.460;2023-04-29T11:40:56;13.60;99.90
51637;DHT22;37713;53.254;6.460;2023-04-29T11:43:23;13.60;99.90
51637;DHT22;37713;53.254;6.460;2023-04-29T11:45:50;13.60;99.90
51637;DHT22;37713;53.254;6.460;2023-04-29T11:48:24;13.60;99.90
51637;DHT22;37713;53.254;6.460;2023-04-29T11:50:56;13.50;99.90
51637;DHT22;37713;53.254;6.460;2023-04-29T11:53:26;13.40;99.90
51637;DHT22;37713;53.254;6.460;2023-04-29T11:55:55;13.40;99.90
51637;DHT22;37713;53.254;6.460;2023-04-29T11:58:24;13.50;99.90
51637;DHT22;37713;53.254;6.460;2023-04-29T12:00:50;13.50;99.90
51637;DHT22;37713;53.254;6.460;2023-04-29T12:03:19;13.70;99.90
51637;DHT22;37713;53.254;6.460;2023-04-29T12:05:53;13.70;99.90
51637;DHT22;37713;53.254;6.460;2023-04-29T12:08:20;13.80;99.90
51637;DHT22;37713;53.254;6.460;2023-04-29T12:10:53;13.80;99.90
51637;DHT22;37713;53.254;6.460;2023-04-29T12:13:22;13.80;99.90
51637;DHT22;37713;53.254;6.460;2023-04-29T12:15:50;13.80;99.90
51637;DHT22;37713;53.254;6.460;2023-04-29T12:18:17;13.90;99.90
51637;DHT22;37713;53.254;6.460;2023-04-29T12:20:44;14.00;99.90
51637;DHT22;37713;53.254;6.460;2023-04-29T12:23:14;14.00;99.90
51637;DHT22;37713;53.254;6.460;2023-04-29T12:25:41;14.10;99.90
51637;DHT22;37713;53.254;6.460;2023-04-29T12:28:13;14.00;99.90
51637;DHT22;37713;53.254;6.460;2023-04-29T12:30:39;14.20;99.90
51637;DHT22;37713;53.254;6.460;2023-04-29T12:33:08;14.30;99.90
51637;DHT22;37713;53.254;6.460;2023-04-29T12:35:35;14.20;99.90
51637;DHT22;37713;53.254;6.460;2023-04-29T12:38:01;14.20;99.90
51637;DHT22;37713;53.254;6.460;2023-04-29T12:40:27;14.20;99.90
51637;DHT22;37713;53.254;6.460;2023-04-29T12:42:53;14.40;99.90
51637;DHT22;37713;53.254;6.460;2023-04-29T12:45:29;14.30;99.90
51637;DHT22;37713;53.254;6.460;2023-04-29T12:47:56;14.40;99.90
51637;DHT22;37713;53.254;6.460;2023-04-29T12:50:37;14.30;99.90
51637;DHT22;37713;53.254;6.460;2023-04-29T12:53:04;14.30;99.90
51637;DHT22;37713;53.254;6.460;2023-04-29T12:55:34;14.20;99.90
51637;DHT22;37713;53.254;6.460;2023-04-29T12:58:02;14.40;99.90
51637;DHT22;37713;53.254;6.460;2023-04-29T13:00:28;14.20;99.90
51637;DHT22;37713;53.254;6.460;2023-04-29T13:02:54;14.30;99.90
51637;DHT22;37713;53.254;6.460;2023-04-29T13:05:20;14.20;99.90
51637;DHT22;37713;53.254;6.460;2023-04-29T13:07:48;14.20;99.90
51637;DHT22;37713;53.254;6.460;2023-04-29T13:10:13;14.00;99.90
51637;DHT22;37713;53.254;6.460;2023-04-29T13:12:39;14.20;99.90
51637;DHT22;37713;53.254;6.460;2023-04-29T13:15:06;14.20;99.90
51637;DHT22;37713;53.254;6.460;2023-04-29T13:17:34;14.10;99.90
51637;DHT22;37713;53.254;6.460;2023-04-29T13:20:02;14.00;99.90
51637;DHT22;37713;53.254;6.460;2023-04-29T13:22:28;13.90;99.90
51637;DHT22;37713;53.254;6.460;2023-04-29T13:24:54;13.90;99.90
51637;DHT22;37713;53.254;6.460;2023-04-29T13:27:20;13.80;99.90
51637;DHT22;37713;53.254;6.460;2023-04-29T13:29:45;13.70;99.90
51637;DHT22;37713;53.254;6.460;2023-04-29T13:32:11;13.70;99.90
51637;DHT22;37713;53.254;6.460;2023-04-29T13:34:37;13.60;99.90
51637;DHT22;37713;53.254;6.460;2023-04-29T13:37:03;13.70;99.90
51637;DHT22;37713;53.254;6.460;2023-04-29T13:39:28;13.90;99.90
51637;DHT22;37713;53.254;6.460;2023-04-29T13:41:54;14.00;99.90
51637;DHT22;37713;53.254;6.460;2023-04-29T13:44:20;14.00;99.90
51637;DHT22;37713;53.254;6.460;2023-04-29T13:46:46;13.80;99.90
51637;DHT22;37713;53.254;6.460;2023-04-29T13:49:12;13.50;99.90
51637;DHT22;37713;53.254;6.460;2023-04-29T13:51:38;13.60;99.90
51637;DHT22;37713;53.254;6.460;2023-04-29T13:54:04;13.50;99.90
51637;DHT22;37713;53.254;6.460;2023-04-29T13:56:29;13.60;99.90
51637;DHT22;37713;53.254;6.460;2023-04-29T13:58:55;13.50;99.90
51637;DHT22;37713;53.254;6.460;2023-04-29T14:01:21;13.40;99.90
51637;DHT22;37713;53.254;6.460;2023-04-29T14:03:48;13.50;99.90
51637;DHT22;37713;53.254;6.460;2023-04-29T14:06:14;13.40;99.90
51637;DHT22;37713;53.254;6.460;2023-04-29T14:08:40;13.70;99.90
51637;DHT22;37713;53.254;6.460;2023-04-29T14:11:06;13.80;99.90
51637;DHT22;37713;53.254;6.460;2023-04-29T14:13:32;13.80;99.90
51637;DHT22;37713;53.254;6.460;2023-04-29T14:15:58;13.80;99.90
51637;DHT22;37713;53.254;6.460;2023-04-29T14:18:24;13.70;99.90
51637;DHT22;37713;53.254;6.460;2023-04-29T14:20:51;13.50;99.90
51637;DHT22;37713;53.254;6.460;2023-04-29T14:23:19;13.40;99.90
51637;DHT22;37713;53.254;6.460;2023-04-29T14:25:44;13.50;99.90
51637;DHT22;37713;53.254;6.460;2023-04-29T14:28:10;13.50;99.90
51637;DHT22;37713;53.254;6.460;2023-04-29T14:30:37;13.50;99.90
51637;DHT22;37713;53.254;6.460;2023-04-29T14:33:02;13.50;99.90
51637;DHT22;37713;53.254;6.460;2023-04-29T14:35:29;13.30;99.90
51637;DHT22;37713;53.254;6.460;2023-04-29T14:37:56;13.40;99.90
51637;DHT22;37713;53.254;6.460;2023-04-29T14:40:23;13.40;99.90
51637;DHT22;37713;53.254;6.460;2023-04-29T14:42:48;13.40;99.90
51637;DHT22;37713;53.254;6.460;2023-04-29T14:45:14;13.30;99.90
51637;DHT22;37713;53.254;6.460;2023-04-29T14:47:41;13.30;99.90
51637;DHT22;37713;53.254;6.460;2023-04-29T14:50:08;13.00;99.90
51637;DHT22;37713;53.254;6.460;2023-04-29T14:52:34;12.90;99.90
51637;DHT22;37713;53.254;6.460;2023-04-29T14:55:01;12.90;99.90
51637;DHT22;37713;53.254;6.460;2023-04-29T14:57:27;12.90;99.90
51637;DHT22;37713;53.254;6.460;2023-04-29T14:59:55;13.00;99.90
51637;DHT22;37713;53.254;6.460;2023-04-29T15:02:20;13.20;99.90
51637;DHT22;37713;53.254;6.460;2023-04-29T15:04:46;13.30;99.90
51637;DHT22;37713;53.254;6.460;2023-04-29T15:07:14;13.20;99.90
51637;DHT22;37713;53.254;6.460;2023-04-29T15:09:40;13.20;99.90
51637;DHT22;37713;53.254;6.460;2023-04-29T15:12:07;13.10;99.90
51637;DHT22;37713;53.254;6.460;2023-04-29T15:14:33;12.90;99.90
51637;DHT22;37713;53.254;6.460;2023-04-29T15:16:59;12.90;99.90
51637;DHT22;37713;53.254;6.460;2023-04-29T15:19:25;13.10;99.90
51637;DHT22;37713;53.254;6.460;2023-04-29T15:21:51;12.90;99.90
51637;DHT22;37713;53.254;6.460;2023-04-29T15:24:18;12.90;99.90
51637;DHT22;37713;53.254;6.460;2023-04-29T15:26:44;13.00;99.90
51637;DHT22;37713;53.254;6.460;2023-04-29T15:29:11;13.20;99.90
51637;DHT22;37713;53.254;6.460;2023-04-29T15:31:37;13.00;99.90
51637;DHT22;37713;53.254;6.460;2023-04-29T15:34:03;13.00;99.90
51637;DHT22;37713;53.254;6.460;2023-04-29T15:36:30;13.00;99.90
51637;DHT22;37713;53.254;6.460;2023-04-29T15:38:57;12.80;99.90
51637;DHT22;37713;53.254;6.460;2023-04-29T15:41:23;12.70;99.90
51637;DHT22;37713;53.254;6.460;2023-04-29T15:43:51;12.60;99.90
51637;DHT22;37713;53.254;6.460;2023-04-29T15:46:17;12.50;99.90
51637;DHT22;37713;53.254;6.460;2023-04-29T15:48:44;12.50;99.90
51637;DHT22;37713;53.254;6.460;2023-04-29T15:51:13;12.50;99.90
51637;DHT22;37713;53.254;6.460;2023-04-29T15:53:42;12.40;99.90
51637;DHT22;37713;53.254;6.460;2023-04-29T15:56:09;12.30;99.90
51637;DHT22;37713;53.254;6.460;2023-04-29T15:58:35;12.00;99.90
51637;DHT22;37713;53.254;6.460;2023-04-29T16:01:01;12.00;99.90
51637;DHT22;37713;53.254;6.460;2023-04-29T16:03:29;11.80;99.90
51637;DHT22;37713;53.254;6.460;2023-04-29T16:05:55;11.80;99.90
51637;DHT22;37713;53.254;6.460;2023-04-29T16:08:21;11.70;99.90
51637;DHT22;37713;53.254;6.460;2023-04-29T16:10:47;11.60;99.90